Time;durP1;ratioP1;P1;durP2;ratioP2;P2;SDS_P1;SDS_P2;PMS_P1;PMS_P2;Temp;Humidity;BMP_temperature;BMP_pressure;BME280_temperature;BME280_humidity;BME280_pressure;Samples;Min_cycle;Max_cycle;Signal;HPM_P1;HPM_P2
2021/08/14 00:02:24;;;;;;;8.88;6.93;;;;;;;21.81;78.45;101197.38;2616366;31;20027;-42
2021/08/14 00:04:52;;;;;;;10.18;6.53;;;;;;;21.71;78.72;101195.78;2614429;36;20030;-45
2021/08/14 00:07:19;;;;;;;10.45;6.97;;;;;;;21.59;79.43;101202.88;2614362;31;20057;-45
2021/08/14 00:09:46;;;;;;;8.35;6.78;;;;;;;;;;2614794;31;20832;-44
2021/08/14 00:12:13;;;;;;;10.82;7.22;;;;;;;21.41;80.08;101207.44;2614716;31;20672;-47
2021/08/14 00:14:40;;;;;;;10.10;6.47;;;;;;;21.27;81.28;101203.19;2614433;31;20065;-46
2021/08/14 00:17:07;;;;;;;7.85;6.15;;;;;;;21.39;80.06;101207.44;2614398;36;20037;-44
2021/08/14 00:19:34;;;;;;;8.32;7.28;;;;;;;21.41;80.18;101210.03;2614381;36;20042;-46
2021/08/14 00:22:02;;;;;;;8.90;6.45;;;;;;;21.28;80.45;101211.88;2614149;31;20072;-44
2021/08/14 00:24:29;;;;;;;8.27;7.22;;;;;;;21.09;80.57;101211.19;2616227;31;20034;-44
2021/08/14 00:26:56;;;;;;;7.63;6.05;;;;;;;21.27;79.11;101218.84;2614800;31;20077;-42
2021/08/14 00:29:23;;;;;;;8.57;6.38;;;;;;;21.33;76.83;101217.94;2614004;36;20061;-43
2021/08/14 00:31:50;;;;;;;6.95;5.93;;;;;;;21.18;76.05;101210.25;2614144;36;20031;-46
2021/08/14 00:34:17;;;;;;;8.98;5.88;;;;;;;21.08;75.95;101217.28;2614261;31;20030;-43
2021/08/14 00:36:45;;;;;;;6.70;5.35;;;;;;;21.14;74.88;101230.25;2614439;31;20582;-45
2021/08/14 00:39:12;;;;;;;7.05;5.68;;;;;;;21.09;74.67;101222.47;2614846;31;20073;-44
2021/08/14 00:41:46;;;;;;;7.70;5.85;;;;;;;21.11;73.07;101218.09;2615027;31;20506;-47
2021/08/14 00:44:15;;;;;;;9.07;6.25;;;;;;;21.07;72.62;101224.22;2578829;31;2004577;-47
2021/08/14 00:46:42;;;;;;;7.63;5.47;;;;;;;21.04;73.16;101221.66;2614426;36;20030;-43
2021/08/14 00:49:10;;;;;;;7.15;5.38;;;;;;;21.03;72.17;101227.75;2613893;36;20559;-43
2021/08/14 00:51:37;;;;;;;7.18;5.35;;;;;;;20.92;72.67;101226.09;2614614;31;20582;-43
2021/08/14 00:54:05;;;;;;;7.65;6.35;;;;;;;21.00;72.29;101219.94;2614553;31;20019;-44
2021/08/14 00:56:32;;;;;;;10.73;5.57;;;;;;;20.85;72.77;101218.34;2614244;36;20057;-43
2021/08/14 00:58:59;;;;;;;6.22;5.10;;;;;;;20.78;73.78;101214.06;2613932;36;20061;-45
2021/08/14 01:01:27;;;;;;;7.18;5.68;;;;;;;20.79;73.81;101220.97;2614391;31;20053;-45
2021/08/14 01:03:57;;;;;;;7.40;5.30;;;;;;;20.58;75.50;101211.63;2613716;31;20037;-44
2021/08/14 01:06:28;;;;;;;7.75;5.53;;;;;;;20.66;74.96;101219.38;2613951;36;20065;-45
2021/08/14 01:08:57;;;;;;;8.20;5.50;;;;;;;20.85;73.41;101220.09;2614017;36;20045;-43
2021/08/14 01:11:25;;;;;;;6.65;5.35;;;;;;;20.38;75.66;101221.22;2614017;36;20597;-45
2021/08/14 01:13:52;;;;;;;9.43;5.82;;;;;;;20.78;73.47;101226.22;2614871;31;20031;-43
2021/08/14 01:16:21;;;;;;;9.57;5.53;;;;;;;20.58;74.19;101227.22;2614559;31;20042;-49
2021/08/14 01:18:48;;;;;;;7.43;5.35;;;;;;;20.49;74.24;101227.28;2614045;36;20034;-45
2021/08/14 01:21:21;;;;;;;7.70;5.60;;;;;;;20.29;74.56;101226.50;2614201;36;20038;-42
2021/08/14 01:23:49;;;;;;;6.93;5.22;;;;;;;20.32;74.43;101224.75;2615491;31;20478;-43
2021/08/14 01:26:17;;;;;;;7.20;4.97;;;;;;;20.56;72.85;101222.88;2614669;36;20116;-45
2021/08/14 01:28:45;;;;;;;8.18;6.00;;;;;;;20.52;72.77;101219.47;2614373;36;20072;-47
2021/08/14 01:31:15;;;;;;;7.38;5.53;;;;;;;20.13;74.17;101222.25;2614675;36;20042;-43
2021/08/14 01:33:44;;;;;;;8.35;5.10;;;;;;;20.28;73.17;101232.56;2615155;36;20061;-43
2021/08/14 01:36:14;;;;;;;6.63;5.30;;;;;;;20.10;74.09;101230.94;2615544;31;20037;-43
2021/08/14 01:38:49;;;;;;;8.27;4.72;;;;;;;20.30;73.04;101236.91;2615703;31;20033;-44
2021/08/14 01:41:17;;;;;;;8.03;5.50;;;;;;;19.97;74.09;101239.69;2579270;31;2004966;-43
2021/08/14 01:44:00;;;;;;;7.47;5.10;;;;;;;19.90;75.06;101240.56;2615640;36;20158;-45
2021/08/14 01:46:37;;;;;;;6.70;5.10;;;;;;;19.74;76.74;101238.03;2578446;36;2004383;-45
2021/08/14 01:49:04;;;;;;;7.53;5.50;;;;;;;19.57;78.02;101230.25;2615686;31;20545;-43
2021/08/14 01:51:31;;;;;;;6.97;5.10;;;;;;;19.74;78.25;101235.44;2615032;31;20038;-43
2021/08/14 01:54:01;;;;;;;6.72;6.03;;;;;;;19.44;79.90;101240.66;2615942;31;20061;-45
2021/08/14 01:56:28;;;;;;;6.13;5.32;;;;;;;19.47;79.74;101244.13;2614000;36;20065;-43
2021/08/14 01:58:55;;;;;;;6.35;5.70;;;;;;;19.38;80.97;101238.09;2615239;31;20030;-44
2021/08/14 02:01:23;;;;;;;8.63;5.75;;;;;;;19.57;80.13;101237.19;2614350;36;20035;-44
2021/08/14 02:03:51;;;;;;;7.03;6.13;;;;;;;19.28;81.69;101225.13;2614710;36;20114;-44
2021/08/14 02:06:21;;;;;;;6.15;5.55;;;;;;;19.36;82.17;101240.66;2614327;36;20030;-43
2021/08/14 02:08:52;;;;;;;7.53;5.93;;;;;;;19.25;82.11;101245.03;2615026;36;20030;-44
2021/08/14 02:11:22;;;;;;;8.18;5.80;;;;;;;19.17;82.36;101245.03;2614601;36;20034;-43
2021/08/14 02:13:51;;;;;;;6.97;5.85;;;;;;;18.97;84.02;101249.38;2614468;36;20041;-44
2021/08/14 02:16:18;;;;;;;6.43;5.60;;;;;;;19.14;83.76;101252.84;2613891;36;20818;-47
2021/08/14 02:18:46;;;;;;;6.15;5.30;;;;;;;18.95;84.06;101251.97;2615138;31;20736;-46
2021/08/14 02:21:14;;;;;;;6.10;5.50;;;;;;;18.72;85.80;101253.66;2615047;31;20039;-43
2021/08/14 02:23:43;;;;;;;8.55;5.85;;;;;;;18.87;85.12;101252.84;2614597;36;20479;-44
2021/08/14 02:26:10;;;;;;;8.98;6.28;;;;;;;18.85;85.13;101252.81;2614110;31;20069;-44
2021/08/14 02:28:37;;;;;;;7.97;6.55;;;;;;;18.60;86.71;101256.22;2613865;36;20065;-45
2021/08/14 02:31:05;;;;;;;8.52;6.53;;;;;;;18.42;88.61;101262.22;2614119;36;20082;-46
2021/08/14 02:33:33;;;;;;;9.55;6.55;;;;;;;18.84;86.09;101258.88;2616438;31;20030;-46
2021/08/14 02:36:01;;;;;;;8.23;5.60;;;;;;;18.69;87.04;101270.09;2616164;31;20022;-43
2021/08/14 02:38:28;;;;;;;6.82;5.82;;;;;;;18.64;87.43;101261.41;2613775;36;20030;-44
2021/08/14 02:40:55;;;;;;;7.60;5.80;;;;;;;18.69;86.62;101259.72;2613971;36;20027;-44
2021/08/14 02:43:23;;;;;;;8.13;6.15;;;;;;;18.65;86.89;101251.91;2614881;31;20877;-45
2021/08/14 02:45:50;;;;;;;7.00;6.20;;;;;;;18.74;86.26;101247.63;2613997;36;20034;-43
2021/08/14 02:48:17;;;;;;;8.43;5.70;;;;;;;18.65;86.44;101251.91;2613576;36;20582;-44
2021/08/14 02:50:45;;;;;;;7.85;6.10;;;;;;;18.36;89.00;101255.31;2614243;36;20594;-44
2021/08/14 02:53:13;;;;;;;8.13;6.07;;;;;;;18.08;90.84;101256.94;2615672;31;20065;-45
2021/08/14 02:55:41;;;;;;;7.80;6.03;;;;;;;18.00;91.98;101258.63;2614587;31;20050;-42
2021/08/14 02:58:08;;;;;;;10.43;6.32;;;;;;;18.06;92.31;101261.25;2615069;31;20034;-45
2021/08/14 03:00:36;;;;;;;7.65;5.88;;;;;;;18.52;89.00;101266.56;2614143;31;20038;-43
2021/08/14 03:03:04;;;;;;;10.05;5.97;;;;;;;18.63;86.96;101269.22;2613763;36;20594;-42
2021/08/14 03:05:35;;;;;;;7.40;5.20;;;;;;;18.27;88.59;101265.66;2617028;36;20030;-44
2021/08/14 03:08:06;;;;;;;8.82;6.18;;;;;;;17.97;91.24;101256.88;2621969;31;20041;-47
2021/08/14 03:10:33;;;;;;;7.25;6.15;;;;;;;18.23;90.80;101272.56;2617185;36;20030;-47
2021/08/14 03:13:00;;;;;;;10.10;6.30;;;;;;;18.23;91.00;101266.50;2614853;31;20035;-43
2021/08/14 03:15:27;;;;;;;6.82;5.70;;;;;;;17.93;92.02;101269.81;2614545;31;20034;-45
2021/08/14 03:17:55;;;;;;;7.22;6.05;;;;;;;18.00;91.75;101264.69;2613561;36;20668;-45
2021/08/14 03:20:22;;;;;;;9.85;5.45;;;;;;;18.43;89.12;101264.81;2613830;36;20609;-45
2021/08/14 03:22:49;;;;;;;9.95;5.85;;;;;;;18.24;89.72;101273.41;2614242;31;20042;-43
2021/08/14 03:25:16;;;;;;;6.82;5.38;;;;;;;18.48;88.39;101273.47;2613914;31;20078;-43
2021/08/14 03:27:44;;;;;;;7.95;6.35;;;;;;;18.16;90.10;101273.38;2613763;36;20054;-43
2021/08/14 03:30:14;;;;;;;7.07;6.00;;;;;;;17.98;90.59;101275.88;2613949;36;20038;-43
2021/08/14 03:32:41;;;;;;;9.60;6.70;;;;;;;18.08;90.24;101284.59;2614347;31;20047;-43
2021/08/14 03:35:09;;;;;;;9.00;5.90;;;;;;;17.95;90.32;101281.06;2614467;31;20034;-43
2021/08/14 03:37:37;;;;;;;7.72;5.15;;;;;;;17.91;91.05;101284.50;2613630;36;20481;-48
2021/08/14 03:40:06;;;;;;;8.35;6.10;;;;;;;18.11;89.21;101282.00;2613415;36;20035;-47
2021/08/14 03:42:34;;;;;;;9.23;5.65;;;;;;;18.12;89.15;101278.53;2613927;31;20055;-46
2021/08/14 03:45:01;;;;;;;7.95;5.82;;;;;;;17.77;90.58;101287.03;2612778;31;20062;-46
2021/08/14 03:47:28;;;;;;;13.27;6.38;;;;;;;17.59;92.02;101285.16;2612084;31;20073;-45
2021/08/14 03:49:55;;;;;;;7.82;5.70;;;;;;;17.78;91.79;101278.38;2612913;31;20582;-47
2021/08/14 03:52:23;;;;;;;11.18;5.95;;;;;;;17.64;91.94;101280.00;2613603;31;20598;-45
2021/08/14 03:54:52;;;;;;;7.25;5.63;;;;;;;17.70;91.84;101277.44;2613529;36;20836;-47
2021/08/14 03:57:20;;;;;;;11.32;6.05;;;;;;;17.80;90.72;101280.13;2613630;36;20038;-46
2021/08/14 03:59:47;;;;;;;9.43;6.07;;;;;;;18.22;88.67;101276.00;2614360;31;20036;-44
2021/08/14 04:02:14;;;;;;;10.27;5.93;;;;;;;18.42;87.01;101277.78;2616499;31;20027;-44
2021/08/14 04:04:42;;;;;;;8.98;5.10;;;;;;;17.91;90.32;101276.72;2613085;36;20038;-46
2021/08/14 04:07:09;;;;;;;11.10;6.15;;;;;;;17.76;90.32;101280.97;2613142;36;20031;-44
2021/08/14 04:09:37;;;;;;;8.13;5.93;;;;;;;17.83;90.48;101283.59;2614341;36;20042;-44
2021/08/14 04:12:06;;;;;;;7.30;5.22;;;;;;;18.05;89.55;101286.28;2614261;31;20037;-44
2021/08/14 04:14:33;;;;;;;12.95;6.25;;;;;;;18.10;88.76;101283.72;2613917;31;20026;-44
2021/08/14 04:17:00;;;;;;;8.82;5.32;;;;;;;18.40;86.39;101280.41;2613890;36;20624;-46
2021/08/14 04:19:27;;;;;;;8.23;5.50;;;;;;;18.42;86.41;101281.25;2616148;31;20451;-43
2021/08/14 04:21:54;;;;;;;8.88;5.50;;;;;;;18.50;86.24;101276.09;2615127;31;20467;-50
2021/08/14 04:24:21;;;;;;;8.98;5.18;;;;;;;17.90;89.76;101280.19;2614711;31;20056;-44
2021/08/14 04:26:48;;;;;;;9.60;6.03;;;;;;;17.65;92.10;101280.00;2615374;31;20030;-58
2021/08/14 04:29:15;;;;;;;9.27;5.88;;;;;;;18.10;90.14;101282.88;2615110;36;20584;-53
2021/08/14 04:31:42;;;;;;;10.20;5.65;;;;;;;18.14;87.95;101288.06;2616193;31;20031;-58
2021/08/14 04:34:10;;;;;;;10.40;6.43;;;;;;;18.01;89.68;101294.06;2615647;36;20450;-53
2021/08/14 04:36:38;;;;;;;9.55;5.90;;;;;;;17.87;91.79;101290.53;2614965;36;20038;-54
2021/08/14 04:39:05;;;;;;;16.10;6.35;;;;;;;17.70;92.77;101293.88;2615153;31;20165;-54
2021/08/14 04:41:35;;;;;;;11.60;6.10;;;;;;;17.36;94.31;101284.13;2615557;36;20442;-57
2021/08/14 04:44:05;;;;;;;9.68;5.88;;;;;;;17.27;95.03;101296.13;2615218;36;20059;-57
2021/08/14 04:46:32;;;;;;;9.50;5.10;;;;;;;17.44;94.16;101298.88;2616045;31;20027;-57
2021/08/14 04:49:00;;;;;;;9.45;5.70;;;;;;;17.06;96.66;101298.56;2615496;31;20133;-56
2021/08/14 04:51:28;;;;;;;12.02;5.60;;;;;;;17.26;95.25;101306.50;2615479;36;20030;-55
2021/08/14 04:53:56;;;;;;;7.97;5.50;;;;;;;17.24;95.59;101305.59;2615987;31;20033;-57
2021/08/14 04:56:24;;;;;;;9.32;5.70;;;;;;;17.35;94.64;101305.69;2615876;36;20416;-56
2021/08/14 04:58:53;;;;;;;12.68;6.70;;;;;;;17.18;96.11;101302.97;2615027;31;20434;-51
2021/08/14 05:01:20;;;;;;;11.30;6.38;;;;;;;17.27;96.02;101295.28;2615347;31;20037;-53
2021/08/14 05:03:51;;;;;;;10.65;5.78;;;;;;;17.25;95.84;101300.44;2615344;31;20601;-54
2021/08/14 05:06:24;;;;;;;8.30;6.00;;;;;;;17.09;97.59;101300.28;2579196;36;2004637;-56
2021/08/14 05:08:51;;;;;;;8.23;5.78;;;;;;;17.51;96.11;101300.63;2615255;31;20574;-58
2021/08/14 05:11:18;;;;;;;12.43;5.68;;;;;;;17.77;93.58;101295.66;2615594;31;20038;-56
2021/08/14 05:13:46;;;;;;;10.20;5.18;;;;;;;18.12;91.45;101305.34;2615188;36;20037;-56
2021/08/14 05:16:14;;;;;;;7.97;5.07;;;;;;;18.14;90.94;101311.41;2615505;31;20042;-55
2021/08/14 05:18:42;;;;;;;9.55;5.18;;;;;;;18.18;90.40;101309.69;2614225;36;20030;-58
2021/08/14 05:21:10;;;;;;;8.85;4.82;;;;;;;18.22;89.60;101303.66;2615377;31;20030;-56
2021/08/14 05:23:38;;;;;;;8.85;4.75;;;;;;;18.41;88.40;101302.00;2615441;31;20062;-59
2021/08/14 05:26:05;;;;;;;10.38;4.88;;;;;;;18.48;87.70;101301.16;2615098;31;20026;-56
2021/08/14 05:28:34;;;;;;;8.18;4.82;;;;;;;18.51;87.68;101295.97;2615905;31;20026;-55
2021/08/14 05:31:01;;;;;;;8.50;4.93;;;;;;;18.26;88.96;101297.63;2615099;36;20031;-55
2021/08/14 05:33:35;;;;;;;10.15;4.80;;;;;;;18.50;87.42;101299.44;2615280;31;20534;-58
2021/08/14 05:36:08;;;;;;;10.00;5.20;;;;;;;18.57;86.36;101298.56;2615357;36;20432;-57
2021/08/14 05:38:37;;;;;;;11.82;5.65;;;;;;;18.68;86.01;101296.03;2615422;31;20038;-60
2021/08/14 05:41:06;;;;;;;10.13;5.20;;;;;;;18.77;84.01;101296.09;2615232;36;20161;-56
2021/08/14 05:43:36;;;;;;;8.60;5.15;;;;;;;18.64;85.62;101299.47;2615374;31;20037;-55
2021/08/14 05:46:04;;;;;;;11.20;4.55;;;;;;;18.78;83.68;101305.59;2615210;31;20030;-55
2021/08/14 05:48:32;;;;;;;11.50;4.97;;;;;;;18.86;84.50;101301.28;2614897;36;20041;-58
2021/08/14 05:51:00;;;;;;;9.65;5.18;;;;;;;18.71;86.75;101302.09;2615165;36;20026;-53
2021/08/14 05:53:33;;;;;;;9.50;5.00;;;;;;;18.63;87.50;101311.59;2614499;36;20045;-56
2021/08/14 05:56:03;;;;;;;9.48;4.80;;;;;;;18.73;84.62;101309.91;2614889;36;20019;-54
2021/08/14 05:58:32;;;;;;;8.90;5.00;;;;;;;18.94;82.25;101314.25;2614960;31;20042;-57
2021/08/14 06:01:01;;;;;;;8.80;5.00;;;;;;;19.01;83.72;101319.47;2616795;31;20551;-55
2021/08/14 06:03:34;;;;;;;10.35;5.15;;;;;;;18.93;84.16;101315.97;2617753;31;20175;-56
2021/08/14 06:06:02;;;;;;;16.02;5.30;;;;;;;19.15;82.28;101321.22;2615557;31;20050;-57
2021/08/14 06:08:33;;;;;;;8.20;5.20;;;;;;;19.49;81.41;101316.84;2614893;36;20031;-57
2021/08/14 06:11:00;;;;;;;9.93;5.03;;;;;;;19.41;80.70;101316.84;2615082;36;20578;-54
2021/08/14 06:13:28;;;;;;;11.43;4.70;;;;;;;19.68;78.95;101321.19;2615039;36;20030;-58
2021/08/14 06:15:59;;;;;;;13.55;5.22;;;;;;;19.68;79.30;101326.38;2615903;31;20026;-56
2021/08/14 06:18:28;;;;;;;12.57;4.97;;;;;;;19.72;76.88;101335.06;2615363;31;20057;-56
2021/08/14 06:20:56;;;;;;;9.38;4.97;;;;;;;19.67;79.05;101322.06;2615133;36;20152;-55
2021/08/14 06:23:24;;;;;;;10.55;4.82;;;;;;;19.96;78.62;101331.53;2616001;36;20034;-59
2021/08/14 06:25:51;;;;;;;10.88;5.25;;;;;;;20.21;77.26;101328.00;2617771;31;20026;-56
2021/08/14 06:28:18;;;;;;;10.88;5.18;;;;;;;20.29;76.37;101330.53;2615391;31;20034;-59
2021/08/14 06:30:45;;;;;;;9.68;5.00;;;;;;;20.42;73.88;101320.94;2614797;31;20038;-57
2021/08/14 06:33:12;;;;;;;8.55;4.35;;;;;;;20.49;74.89;101323.56;2615402;31;20038;-57
2021/08/14 06:35:39;;;;;;;9.35;5.00;;;;;;;20.53;71.35;101320.06;2615481;31;20046;-54
2021/08/14 06:38:06;;;;;;;10.85;4.95;;;;;;;20.60;71.80;101324.34;2616137;31;20030;-58
2021/08/14 06:40:34;;;;;;;8.70;4.53;;;;;;;20.66;73.22;101322.59;2616136;36;20454;-54
2021/08/14 06:43:01;;;;;;;9.90;4.80;;;;;;;20.94;72.50;101325.88;2615182;36;20031;-57
2021/08/14 06:45:28;;;;;;;13.23;5.53;;;;;;;20.88;70.27;101334.59;2615321;31;20031;-56
2021/08/14 06:47:55;;;;;;;10.95;4.60;;;;;;;20.90;69.98;101329.41;2616825;31;20034;-58
2021/08/14 06:50:22;;;;;;;11.90;5.03;;;;;;;21.07;69.30;101317.97;2615658;36;20510;-55
2021/08/14 06:52:50;;;;;;;11.05;4.97;;;;;;;21.14;68.70;101323.16;2615397;31;20053;-56
2021/08/14 06:55:17;;;;;;;9.35;4.90;;;;;;;21.00;70.20;101318.91;2615412;31;20038;-57
2021/08/14 06:57:44;;;;;;;7.05;4.25;;;;;;;21.33;69.65;101323.00;2615016;36;20023;-54
2021/08/14 07:00:12;;;;;;;8.93;5.10;;;;;;;21.46;67.00;101333.34;2619155;31;20444;-57
2021/08/14 07:02:43;;;;;;;11.10;4.80;;;;;;;21.68;67.09;101342.69;2616314;36;20037;-55
2021/08/14 07:05:11;;;;;;;10.38;5.07;;;;;;;22.10;65.39;101340.50;2616204;36;20063;-58
2021/08/14 07:07:38;;;;;;;10.02;5.22;;;;;;;22.28;63.44;101344.69;2617053;36;20031;-59
2021/08/14 07:10:07;;;;;;;9.55;4.80;;;;;;;22.67;64.40;101335.44;2615999;36;20082;-60
2021/08/14 07:12:35;;;;;;;9.27;4.22;;;;;;;23.42;60.69;101341.28;2615669;31;20033;-58
2021/08/14 07:15:02;;;;;;;9.98;4.55;;;;;;;23.95;57.20;101335.13;2615405;36;20030;-56
2021/08/14 07:17:31;;;;;;;9.88;4.45;;;;;;;24.48;56.50;101334.94;2615273;36;20027;-60
2021/08/14 07:19:58;;;;;;;10.35;4.80;;;;;;;25.64;51.70;101345.25;2615715;31;20626;-57
2021/08/14 07:22:25;;;;;;;7.20;4.05;;;;;;;25.76;52.04;101338.88;2615793;31;20041;-54
2021/08/14 07:24:52;;;;;;;12.68;4.85;;;;;;;24.22;54.20;101336.31;2615329;31;20030;-60
2021/08/14 07:27:19;;;;;;;8.65;4.13;;;;;;;23.00;59.14;101331.50;2613924;36;20034;-56
2021/08/14 07:29:46;;;;;;;12.05;4.68;;;;;;;22.69;58.78;101328.44;2615476;31;20458;-56
2021/08/14 07:32:14;;;;;;;8.70;4.60;;;;;;;22.58;60.60;101333.81;2614651;36;20601;-56
2021/08/14 07:34:41;;;;;;;9.48;4.30;;;;;;;22.09;61.75;101328.31;2614502;36;20034;-59
2021/08/14 07:37:08;;;;;;;6.60;3.97;;;;;;;22.19;62.50;101331.75;2614687;36;20026;-53
2021/08/14 07:39:35;;;;;;;10.50;4.00;;;;;;;21.97;61.49;101331.94;2614537;36;20030;-57
2021/08/14 07:42:02;;;;;;;8.68;4.18;;;;;;;21.71;62.07;101332.22;2615248;36;20046;-57
2021/08/14 07:44:30;;;;;;;7.97;4.32;;;;;;;21.60;63.28;101334.06;2615839;31;20574;-54
2021/08/14 07:47:22;;;;;;;7.25;4.18;;;;;;;21.76;61.67;101332.16;2615786;31;20796;-59
2021/08/14 07:49:55;;;;;;;7.80;3.95;;;;;;;21.76;61.39;101327.81;2579890;31;2004417;-57
2021/08/14 07:52:24;;;;;;;9.32;4.30;;;;;;;21.78;61.48;101330.41;2616307;31;20439;-59
2021/08/14 07:54:52;;;;;;;6.53;3.90;;;;;;;22.16;60.79;101327.41;2616014;31;20562;-57
2021/08/14 07:57:19;;;;;;;8.30;3.70;;;;;;;22.16;61.29;101334.38;2616260;36;20843;-58
2021/08/14 07:59:46;;;;;;;7.28;3.88;;;;;;;22.06;59.75;101338.81;2615824;36;20049;-55
2021/08/14 08:02:14;;;;;;;10.52;4.68;;;;;;;22.20;61.43;101336.06;2619181;31;20031;-57
2021/08/14 08:04:42;;;;;;;5.65;3.53;;;;;;;22.27;59.93;101332.47;2618208;36;20038;-55
2021/08/14 08:07:10;;;;;;;7.93;3.92;;;;;;;21.96;59.65;101330.22;2614655;36;20034;-56
2021/08/14 08:09:37;;;;;;;8.13;4.07;;;;;;;22.06;59.32;101330.97;2615342;36;20042;-57
2021/08/14 08:12:06;;;;;;;7.22;3.70;;;;;;;22.16;59.32;101322.19;2616880;31;20022;-57
2021/08/14 08:14:34;;;;;;;8.52;3.85;;;;;;;22.14;58.36;101320.47;2615553;36;20929;-56
2021/08/14 08:17:02;;;;;;;7.20;3.58;;;;;;;22.24;58.92;101316.88;2614868;31;20050;-61
2021/08/14 08:19:29;;;;;;;8.00;3.83;;;;;;;22.21;59.54;101322.13;2615500;31;20042;-53
2021/08/14 08:21:57;;;;;;;7.90;3.50;;;;;;;22.26;59.70;101315.09;2615661;36;20110;-56
2021/08/14 08:24:24;;;;;;;7.30;3.63;;;;;;;22.47;56.84;101311.38;2616047;31;20037;-57
2021/08/14 08:26:51;;;;;;;8.70;3.42;;;;;;;22.56;55.72;101312.09;2616165;31;20030;-55
2021/08/14 08:29:19;;;;;;;12.35;4.70;;;;;;;22.86;58.48;101313.38;2615002;36;20030;-52
2021/08/14 08:31:46;;;;;;;8.68;3.60;;;;;;;22.82;55.48;101318.69;2615810;36;20030;-57
2021/08/14 08:34:23;;;;;;;6.68;3.58;;;;;;;23.21;53.84;101305.94;2617341;31;20428;-56
2021/08/14 08:36:52;;;;;;;9.02;3.78;;;;;;;23.05;54.66;101302.69;2615860;31;20117;-57
2021/08/14 08:39:20;;;;;;;6.07;3.35;;;;;;;23.46;53.37;101304.59;2617504;31;20676;-57
2021/08/14 08:41:49;;;;;;;7.13;3.38;;;;;;;23.21;52.54;101304.19;2615912;36;20452;-54
2021/08/14 08:44:16;;;;;;;6.13;3.53;;;;;;;23.44;52.33;101297.69;2615562;36;20440;-59
2021/08/14 08:46:47;;;;;;;6.43;3.65;;;;;;;24.51;54.39;101293.84;2615375;36;20034;-53
2021/08/14 08:49:17;;;;;;;6.75;3.47;;;;;;;24.37;49.20;101295.91;2615855;31;20055;-57
2021/08/14 08:51:46;;;;;;;9.80;4.00;;;;;;;24.48;51.42;101283.41;2615488;36;20034;-57
2021/08/14 08:54:16;;;;;;;7.30;3.50;;;;;;;23.83;52.53;101285.63;2615066;36;20571;-55
2021/08/14 08:56:43;;;;;;;6.40;3.42;;;;;;;23.95;53.01;101281.94;2616024;31;20037;-55
2021/08/14 08:59:11;;;;;;;8.40;3.45;;;;;;;23.78;52.93;101283.13;2615908;31;20057;-52
2021/08/14 09:01:40;;;;;;;9.25;4.13;;;;;;;23.84;51.28;101279.50;2615613;31;20019;-54
2021/08/14 09:04:23;;;;;;;6.97;3.90;;;;;;;23.58;52.79;101267.78;2615385;31;20026;-54
2021/08/14 09:06:51;;;;;;;7.88;3.65;;;;;;;23.88;51.71;101281.16;2615247;36;20023;-53
2021/08/14 09:09:27;;;;;;;9.32;3.45;;;;;;;23.96;51.08;101278.41;2614296;36;20049;-54
2021/08/14 09:12:06;;;;;;;;;;;;;;;24.08;50.85;101279.03;2578688;31;2004477;-57
2021/08/14 09:14:49;;;;;;;8.90;3.80;;;;;;;23.83;51.19;101278.66;2614638;36;19951;-52
2021/08/14 09:17:18;;;;;;;9.40;3.47;;;;;;;23.98;51.04;101266.16;2614453;36;20061;-52
2021/08/14 09:19:45;;;;;;;6.50;3.13;;;;;;;24.00;49.89;101260.00;2614408;36;20035;-52
2021/08/14 09:22:24;;;;;;;8.38;3.85;;;;;;;24.45;49.67;101269.53;2614537;36;20061;-55
2021/08/14 09:24:51;;;;;;;6.25;3.10;;;;;;;24.39;49.31;101271.38;2615377;36;20035;-55
2021/08/14 09:27:18;;;;;;;5.10;3.47;;;;;;;24.59;48.81;101276.19;2615273;36;20030;-57
2021/08/14 09:29:49;;;;;;;7.65;3.13;;;;;;;24.81;48.63;101271.28;2615317;36;20057;-55
2021/08/14 09:32:19;;;;;;;5.95;3.42;;;;;;;24.87;50.54;101268.53;2616504;31;20594;-55
2021/08/14 09:34:49;;;;;;;7.55;3.20;;;;;;;25.20;47.06;101267.75;2615821;31;20034;-55
2021/08/14 09:37:21;;;;;;;4.68;3.13;;;;;;;25.14;46.49;101268.75;2615824;31;20061;-55
2021/08/14 09:40:00;;;;;;;6.78;3.35;;;;;;;25.11;47.22;101271.47;2615315;36;20019;-50
2021/08/14 09:42:28;;;;;;;4.63;3.42;;;;;;;25.30;45.75;101269.25;2579548;31;2004242;-51
2021/08/14 09:45:14;;;;;;;6.35;3.38;;;;;;;25.30;46.60;101262.22;2615839;31;20030;-56
2021/08/14 09:47:43;;;;;;;6.00;2.83;;;;;;;25.24;46.20;101251.06;2615318;36;20096;-54
2021/08/14 09:50:11;;;;;;;7.57;3.42;;;;;;;25.46;48.47;101257.44;2615038;36;20026;-56
2021/08/14 09:52:41;;;;;;;7.45;3.50;;;;;;;25.80;45.55;101254.78;2615963;31;20038;-54
2021/08/14 09:55:23;;;;;;;6.03;3.45;;;;;;;25.89;43.66;101251.03;2616536;31;20469;-56
2021/08/14 09:58:00;;;;;;;6.07;3.08;;;;;;;26.73;44.09;101252.88;2616130;31;20041;-54
2021/08/14 10:00:29;;;;;;;7.85;3.35;;;;;;;27.57;41.05;101253.47;2579249;36;2004597;-57
2021/08/14 10:03:00;;;;;;;5.45;3.13;;;;;;;29.83;37.88;101261.94;2615912;31;20558;-54
2021/08/14 10:05:32;;;;;;;5.78;3.33;;;;;;;30.65;35.53;101253.69;2615197;36;20031;-52
2021/08/14 10:08:00;;;;;;;5.63;2.85;;;;;;;33.70;31.44;101267.72;2615853;31;20029;-53
2021/08/14 10:10:28;;;;;;;5.30;2.80;;;;;;;35.06;28.33;101270.50;2615859;31;20034;-56
2021/08/14 10:12:57;;;;;;;6.95;3.00;;;;;;;34.95;27.42;101266.72;2615196;36;20045;-54
2021/08/14 10:15:25;;;;;;;6.57;3.15;;;;;;;34.93;28.25;101273.09;2614910;36;20103;-51
2021/08/14 10:17:53;;;;;;;5.93;3.05;;;;;;;35.19;28.24;101268.72;2614968;36;20035;-52
2021/08/14 10:20:20;;;;;;;5.72;2.58;;;;;;;34.14;27.04;101265.88;2615056;36;20046;-51
2021/08/14 10:22:56;;;;;;;4.53;2.78;;;;;;;37.10;24.67;101272.66;2615016;36;20160;-53
2021/08/14 10:25:24;;;;;;;5.85;2.90;;;;;;;36.76;24.55;101259.19;2621741;36;20018;-48
2021/08/14 10:28:01;;;;;;;7.60;2.90;;;;;;;36.33;24.85;101249.06;2615506;36;20027;-48
2021/08/14 10:30:37;;;;;;;7.05;3.10;;;;;;;38.05;22.31;101250.00;2579000;36;2004778;-49
2021/08/14 10:33:05;;;;;;;4.05;2.80;;;;;;;35.48;24.22;101241.88;2615252;36;20613;-48
2021/08/14 10:35:37;;;;;;;4.60;3.03;;;;;;;36.45;23.03;101242.81;2614948;36;20560;-47
2021/08/14 10:38:41;;;;;;;7.28;3.25;;;;;;;36.29;24.98;101236.06;2614986;36;20034;-50
2021/08/14 10:41:10;;;;;;;7.85;3.55;;;;;;;37.55;25.24;101236.19;2578964;36;2004403;-53
2021/08/14 10:43:52;;;;;;;5.85;3.45;;;;;;;38.32;22.12;101246.94;2615105;36;20098;-48
2021/08/14 10:46:34;;;;;;;4.50;3.50;;;;;;;36.65;23.57;101219.09;2615142;36;20033;-53
2021/08/14 10:49:03;;;;;;;4.63;3.20;;;;;;;37.60;23.07;101225.13;2578817;36;2004277;-50
2021/08/14 10:51:48;;;;;;;5.68;3.08;;;;;;;38.35;21.37;101217.22;2616407;31;20069;-50
2021/08/14 10:54:27;;;;;;;;;;;;;;;37.81;22.46;101209.16;2615771;31;20030;-52
2021/08/14 10:56:57;;;;;;;5.95;3.20;;;;;;;39.40;21.75;101217.22;2578783;36;2004371;-48
2021/08/14 10:59:53;;;;;;;5.30;3.55;;;;;;;37.78;22.36;101215.63;2615653;31;20046;-48
2021/08/14 11:02:20;;;;;;;6.82;3.75;;;;;;;39.40;20.53;101217.22;2615329;31;20034;-49
2021/08/14 11:04:57;;;;;;;5.15;3.03;;;;;;;37.80;23.46;101205.63;2616702;31;20590;-50
2021/08/14 11:07:24;;;;;;;3.80;3.13;;;;;;;37.92;23.40;101211.88;2578712;36;2004430;-48
2021/08/14 11:09:54;;;;;;;5.43;3.80;;;;;;;38.86;23.34;101212.97;2615124;31;20081;-52
2021/08/14 11:12:37;;;;;;;5.10;3.50;;;;;;;38.09;22.76;101205.09;2615086;36;20104;-56
2021/08/14 11:15:25;;;;;;;4.10;3.33;;;;;;;37.83;22.18;101207.22;2578839;31;2004560;-50
2021/08/14 11:18:00;;;;;;;3.78;3.47;;;;;;;39.33;20.75;101205.34;2615578;31;20026;-50
2021/08/14 11:20:39;;;;;;;5.40;3.42;;;;;;;37.56;21.60;101196.94;2579790;36;2005033;-50
2021/08/14 11:23:26;;;;;;;4.60;3.25;;;;;;;38.44;22.22;101192.34;2615935;31;20597;-51
2021/08/14 11:25:54;;;;;;;4.65;3.00;;;;;;;39.83;18.85;101198.19;2579439;36;2004235;-52
2021/08/14 11:28:26;;;;;;;5.90;3.13;;;;;;;41.36;17.73;101183.88;2616061;36;20035;-48
2021/08/14 11:30:58;;;;;;;5.43;3.70;;;;;;;40.30;19.86;101189.47;2615670;36;20054;-49
2021/08/14 11:33:27;;;;;;;5.38;3.90;;;;;;;40.02;18.42;101181.25;2579393;36;2004398;-47
2021/08/14 11:36:10;;;;;;;5.28;3.30;;;;;;;40.02;18.43;101180.41;2615685;36;20042;-48